sensor_id;sensor_type;location;lat;lon;timestamp;pressure;altitude;pressure_sealevel;temperature;humidity
36788;BME280;22738;45.560;9.434;2023-07-29T00:04:19;99607.78;;;23.77;100.00
36788;BME280;22738;45.560;9.434;2023-07-29T00:11:01;99606.53;;;23.73;100.00
36788;BME280;22738;45.560;9.434;2023-07-29T00:17:42;99607.53;;;23.72;100.00
36788;BME280;22738;45.560;9.434;2023-07-29T00:24:23;99595.53;;;23.76;100.00
36788;BME280;22738;45.560;9.434;2023-07-29T00:31:04;99596.66;;;23.67;100.00
36788;BME280;22738;45.560;9.434;2023-07-29T00:37:45;99593.78;;;23.62;100.00
36788;BME280;22738;45.560;9.434;2023-07-29T00:44:26;99585.56;;;23.57;100.00
36788;BME280;22738;45.560;9.434;2023-07-29T00:51:07;99585.50;;;23.51;100.00
36788;BME280;22738;45.560;9.434;2023-07-29T00:57:48;99569.00;;;23.49;100.00
36788;BME280;22738;45.560;9.434;2023-07-29T01:04:32;99567.66;;;23.38;100.00
36788;BME280;22738;45.560;9.434;2023-07-29T01:11:38;99575.47;;;23.31;100.00
36788;BME280;22738;45.560;9.434;2023-07-29T01:18:26;99570.22;;;23.17;100.00
36788;BME280;22738;45.560;9.434;2023-07-29T01:25:08;99569.03;;;23.05;100.00
36788;BME280;22738;45.560;9.434;2023-07-29T01:31:51;99580.53;;;23.12;100.00
36788;BME280;22738;45.560;9.434;2023-07-29T01:38:35;99596.41;;;23.12;100.00
36788;BME280;22738;45.560;9.434;2023-07-29T01:45:18;99597.09;;;23.06;100.00
36788;BME280;22738;45.560;9.434;2023-07-29T01:51:59;99601.69;;;23.12;100.00
36788;BME280;22738;45.560;9.434;2023-07-29T01:58:40;99599.13;;;23.04;100.00
36788;BME280;22738;45.560;9.434;2023-07-29T02:05:23;99583.91;;;22.91;100.00
36788;BME280;22738;45.560;9.434;2023-07-29T02:12:07;99584.34;;;22.65;100.00
36788;BME280;22738;45.560;9.434;2023-07-29T02:18:51;99584.53;;;22.79;100.00
36788;BME280;22738;45.560;9.434;2023-07-29T02:25:35;99583.72;;;22.78;100.00
36788;BME280;22738;45.560;9.434;2023-07-29T02:32:16;99597.75;;;22.79;100.00
36788;BME280;22738;45.560;9.434;2023-07-29T02:38:57;99599.13;;;22.75;100.00
36788;BME280;22738;45.560;9.434;2023-07-29T02:45:38;99591.38;;;22.88;100.00
36788;BME280;22738;45.560;9.434;2023-07-29T02:52:21;99602.13;;;22.86;100.00
36788;BME280;22738;45.560;9.434;2023-07-29T02:59:02;99582.00;;;22.70;100.00
36788;BME280;22738;45.560;9.434;2023-07-29T03:05:45;99601.94;;;22.73;100.00
36788;BME280;22738;45.560;9.434;2023-07-29T03:12:26;99602.50;;;22.68;100.00
36788;BME280;22738;45.560;9.434;2023-07-29T03:19:09;99596.09;;;22.63;100.00
36788;BME280;22738;45.560;9.434;2023-07-29T03:25:50;99593.66;;;22.61;100.00
36788;BME280;22738;45.560;9.434;2023-07-29T03:32:43;99592.59;;;22.48;100.00
36788;BME280;22738;45.560;9.434;2023-07-29T03:39:26;99608.78;;;22.45;100.00
36788;BME280;22738;45.560;9.434;2023-07-29T03:46:08;99619.59;;;22.35;100.00
36788;BME280;22738;45.560;9.434;2023-07-29T03:52:50;99594.25;;;22.26;100.00
36788;BME280;22738;45.560;9.434;2023-07-29T03:59:32;99602.47;;;22.31;100.00
36788;BME280;22738;45.560;9.434;2023-07-29T04:06:15;99603.19;;;22.25;100.00
36788;BME280;22738;45.560;9.434;2023-07-29T04:12:58;99606.25;;;22.14;100.00
36788;BME280;22738;45.560;9.434;2023-07-29T04:19:39;99620.66;;;22.26;100.00
36788;BME280;22738;45.560;9.434;2023-07-29T04:26:20;99630.09;;;22.43;100.00
36788;BME280;22738;45.560;9.434;2023-07-29T04:33:02;99642.88;;;22.54;100.00
36788;BME280;22738;45.560;9.434;2023-07-29T04:39:43;99663.28;;;22.68;100.00
36788;BME280;22738;45.560;9.434;2023-07-29T04:46:24;99657.63;;;22.72;100.00
36788;BME280;22738;45.560;9.434;2023-07-29T04:53:05;99664.22;;;22.76;100.00
36788;BME280;22738;45.560;9.434;2023-07-29T04:59:46;99647.09;;;23.01;100.00
36788;BME280;22738;45.560;9.434;2023-07-29T05:06:27;99647.09;;;23.30;100.00
36788;BME280;22738;45.560;9.434;2023-07-29T05:13:08;99649.66;;;23.38;100.00
36788;BME280;22738;45.560;9.434;2023-07-29T05:19:51;99655.88;;;23.81;100.00
36788;BME280;22738;45.560;9.434;2023-07-29T05:26:32;99653.31;;;24.23;100.00
36788;BME280;22738;45.560;9.434;2023-07-29T05:33:13;99656.56;;;24.46;100.00
36788;BME280;22738;45.560;9.434;2023-07-29T05:39:54;99664.19;;;24.56;100.00
36788;BME280;22738;45.560;9.434;2023-07-29T05:46:36;99654.28;;;26.47;100.00
36788;BME280;22738;45.560;9.434;2023-07-29T05:53:18;99670.34;;;30.91;100.00
36788;BME280;22738;45.560;9.434;2023-07-29T05:59:59;99674.50;;;32.47;100.00
36788;BME280;22738;45.560;9.434;2023-07-29T06:06:44;99679.47;;;33.59;100.00
36788;BME280;22738;45.560;9.434;2023-07-29T06:13:25;99691.50;;;35.37;93.16
36788;BME280;22738;45.560;9.434;2023-07-29T06:20:07;99702.34;;;36.04;88.90
36788;BME280;22738;45.560;9.434;2023-07-29T06:26:48;99698.28;;;37.23;79.70
36788;BME280;22738;45.560;9.434;2023-07-29T06:33:29;99708.47;;;38.10;73.05
36788;BME280;22738;45.560;9.434;2023-07-29T06:40:10;99703.34;;;38.52;65.10
36788;BME280;22738;45.560;9.434;2023-07-29T06:46:52;99709.72;;;38.66;65.25
36788;BME280;22738;45.560;9.434;2023-07-29T06:53:33;99706.91;;;37.35;75.42
36788;BME280;22738;45.560;9.434;2023-07-29T07:00:15;99714.28;;;37.09;78.55
36788;BME280;22738;45.560;9.434;2023-07-29T07:06:56;99712.56;;;35.97;96.53
36788;BME280;22738;45.560;9.434;2023-07-29T07:13:40;99711.66;;;35.20;100.00
36788;BME280;22738;45.560;9.434;2023-07-29T07:20:21;99719.13;;;36.41;97.94
36788;BME280;22738;45.560;9.434;2023-07-29T07:27:02;99718.38;;;38.73;69.37
36788;BME280;22738;45.560;9.434;2023-07-29T07:33:44;99715.94;;;39.00;63.66
36788;BME280;22738;45.560;9.434;2023-07-29T07:40:25;99719.16;;;39.31;60.45
36788;BME280;22738;45.560;9.434;2023-07-29T07:47:07;99718.28;;;38.78;63.30
36788;BME280;22738;45.560;9.434;2023-07-29T07:53:48;99704.19;;;38.04;70.63
36788;BME280;22738;45.560;9.434;2023-07-29T08:00:29;99716.34;;;37.57;74.68
36788;BME280;22738;45.560;9.434;2023-07-29T08:07:10;99698.34;;;36.62;86.36
36788;BME280;22738;45.560;9.434;2023-07-29T08:13:51;99696.44;;;34.67;100.00
36788;BME280;22738;45.560;9.434;2023-07-29T08:20:32;99695.81;;;33.36;100.00
36788;BME280;22738;45.560;9.434;2023-07-29T08:27:13;99690.91;;;33.33;100.00
36788;BME280;22738;45.560;9.434;2023-07-29T08:33:54;99683.91;;;34.24;100.00
36788;BME280;22738;45.560;9.434;2023-07-29T08:40:37;99678.75;;;33.09;100.00
36788;BME280;22738;45.560;9.434;2023-07-29T08:47:22;99679.00;;;34.16;100.00
36788;BME280;22738;45.560;9.434;2023-07-29T08:54:03;99656.50;;;32.75;100.00
36788;BME280;22738;45.560;9.434;2023-07-29T09:00:46;99665.28;;;32.54;100.00
36788;BME280;22738;45.560;9.434;2023-07-29T09:07:28;99660.69;;;31.93;100.00
36788;BME280;22738;45.560;9.434;2023-07-29T09:14:11;99665.09;;;32.27;100.00
36788;BME280;22738;45.560;9.434;2023-07-29T09:20:54;99658.84;;;31.54;100.00
36788;BME280;22738;45.560;9.434;2023-07-29T09:27:37;99648.63;;;30.81;100.00
36788;BME280;22738;45.560;9.434;2023-07-29T09:34:20;99644.34;;;30.57;100.00
36788;BME280;22738;45.560;9.434;2023-07-29T09:41:01;99636.97;;;31.34;100.00
36788;BME280;22738;45.560;9.434;2023-07-29T09:47:46;99643.84;;;32.42;100.00
36788;BME280;22738;45.560;9.434;2023-07-29T09:54:30;99635.59;;;31.71;100.00
36788;BME280;22738;45.560;9.434;2023-07-29T10:01:11;99627.94;;;30.88;100.00
36788;BME280;22738;45.560;9.434;2023-07-29T10:07:54;99623.25;;;30.49;100.00
36788;BME280;22738;45.560;9.434;2023-07-29T10:14:36;99630.78;;;32.46;100.00
36788;BME280;22738;45.560;9.434;2023-07-29T10:21:21;99631.03;;;32.99;100.00
36788;BME280;22738;45.560;9.434;2023-07-29T10:28:05;99632.09;;;33.37;100.00
36788;BME280;22738;45.560;9.434;2023-07-29T10:34:47;99627.50;;;32.27;100.00
36788;BME280;22738;45.560;9.434;2023-07-29T10:42:00;99638.53;;;31.58;100.00
36788;BME280;22738;45.560;9.434;2023-07-29T10:48:45;99628.13;;;33.01;100.00
36788;BME280;22738;45.560;9.434;2023-07-29T10:55:34;99626.91;;;33.30;100.00
36788;BME280;22738;45.560;9.434;2023-07-29T11:02:18;99626.41;;;32.57;100.00
36788;BME280;22738;45.560;9.434;2023-07-29T11:08:59;99623.25;;;32.81;100.00
36788;BME280;22738;45.560;9.434;2023-07-29T11:15:42;99626.41;;;33.33;100.00
36788;BME280;22738;45.560;9.434;2023-07-29T11:22:26;99623.28;;;32.65;100.00
36788;BME280;22738;45.560;9.434;2023-07-29T11:29:11;99614.59;;;32.58;100.00
36788;BME280;22738;45.560;9.434;2023-07-29T11:35:54;99607.03;;;31.93;100.00
36788;BME280;22738;45.560;9.434;2023-07-29T11:42:37;99600.34;;;31.51;100.00
36788;BME280;22738;45.560;9.434;2023-07-29T11:49:18;99602.25;;;31.95;100.00
36788;BME280;22738;45.560;9.434;2023-07-29T11:55:59;99597.44;;;32.59;100.00
36788;BME280;22738;45.560;9.434;2023-07-29T12:02:42;99585.88;;;32.42;100.00
36788;BME280;22738;45.560;9.434;2023-07-29T12:09:26;99562.34;;;31.82;100.00
36788;BME280;22738;45.560;9.434;2023-07-29T12:16:08;99562.28;;;32.10;100.00
36788;BME280;22738;45.560;9.434;2023-07-29T12:22:53;99547.06;;;31.15;100.00
36788;BME280;22738;45.560;9.434;2023-07-29T12:29:40;99556.63;;;31.62;100.00
36788;BME280;22738;45.560;9.434;2023-07-29T12:36:21;99542.97;;;30.95;100.00
36788;BME280;22738;45.560;9.434;2023-07-29T12:43:02;99544.50;;;31.20;100.00
36788;BME280;22738;45.560;9.434;2023-07-29T12:49:43;99529.56;;;31.24;100.00
36788;BME280;22738;45.560;9.434;2023-07-29T12:56:24;99524.44;;;31.62;100.00
36788;BME280;22738;45.560;9.434;2023-07-29T13:03:05;99510.88;;;31.85;100.00
36788;BME280;22738;45.560;9.434;2023-07-29T13:09:47;99519.88;;;31.34;100.00
36788;BME280;22738;45.560;9.434;2023-07-29T13:16:29;99505.06;;;31.43;100.00
36788;BME280;22738;45.560;9.434;2023-07-29T13:23:11;99492.53;;;31.77;100.00
36788;BME280;22738;45.560;9.434;2023-07-29T13:29:52;99500.78;;;31.59;100.00
36788;BME280;22738;45.560;9.434;2023-07-29T13:36:33;99491.72;;;31.77;100.00
36788;BME280;22738;45.560;9.434;2023-07-29T13:43:14;99487.47;;;31.47;100.00
36788;BME280;22738;45.560;9.434;2023-07-29T13:49:55;99484.38;;;31.55;100.00
36788;BME280;22738;45.560;9.434;2023-07-29T13:56:36;99484.78;;;31.81;100.00
36788;BME280;22738;45.560;9.434;2023-07-29T14:03:17;99474.31;;;32.12;100.00
36788;BME280;22738;45.560;9.434;2023-07-29T14:09:59;99470.69;;;32.40;100.00
36788;BME280;22738;45.560;9.434;2023-07-29T14:16:40;99465.31;;;32.57;100.00
36788;BME280;22738;45.560;9.434;2023-07-29T14:23:22;99460.97;;;32.34;100.00
36788;BME280;22738;45.560;9.434;2023-07-29T14:30:04;99452.38;;;31.99;100.00
36788;BME280;22738;45.560;9.434;2023-07-29T14:36:45;99434.50;;;32.04;100.00
36788;BME280;22738;45.560;9.434;2023-07-29T14:43:26;99418.03;;;31.96;100.00
36788;BME280;22738;45.560;9.434;2023-07-29T14:50:07;99411.38;;;32.20;100.00
36788;BME280;22738;45.560;9.434;2023-07-29T14:56:50;99412.56;;;32.07;100.00
36788;BME280;22738;45.560;9.434;2023-07-29T15:03:31;99412.28;;;32.47;100.00
36788;BME280;22738;45.560;9.434;2023-07-29T15:10:14;99413.22;;;32.58;100.00
36788;BME280;22738;45.560;9.434;2023-07-29T15:16:56;99409.03;;;32.67;96.50
36788;BME280;22738;45.560;9.434;2023-07-29T15:23:37;99415.03;;;32.74;100.00
36788;BME280;22738;45.560;9.434;2023-07-29T15:30:18;99400.16;;;32.45;99.19
36788;BME280;22738;45.560;9.434;2023-07-29T15:37:01;99407.66;;;32.42;100.00
36788;BME280;22738;45.560;9.434;2023-07-29T15:43:42;99402.97;;;32.11;100.00
36788;BME280;22738;45.560;9.434;2023-07-29T15:50:23;99411.41;;;32.03;100.00
36788;BME280;22738;45.560;9.434;2023-07-29T15:57:04;99390.13;;;32.13;100.00
36788;BME280;22738;45.560;9.434;2023-07-29T16:03:46;99377.63;;;31.69;100.00
36788;BME280;22738;45.560;9.434;2023-07-29T16:10:27;99381.47;;;31.73;100.00
36788;BME280;22738;45.560;9.434;2023-07-29T16:17:08;99383.69;;;31.59;100.00
36788;BME280;22738;45.560;9.434;2023-07-29T16:23:49;99371.66;;;31.62;100.00
36788;BME280;22738;45.560;9.434;2023-07-29T16:30:34;99371.78;;;31.39;100.00
36788;BME280;22738;45.560;9.434;2023-07-29T16:37:17;99358.31;;;31.34;100.00
36788;BME280;22738;45.560;9.434;2023-07-29T16:43:59;99346.38;;;31.58;100.00
36788;BME280;22738;45.560;9.434;2023-07-29T16:50:40;99344.88;;;32.00;100.00
36788;BME280;22738;45.560;9.434;2023-07-29T16:57:21;99341.47;;;31.88;100.00
36788;BME280;22738;45.560;9.434;2023-07-29T17:04:04;99349.03;;;31.08;100.00
36788;BME280;22738;45.560;9.434;2023-07-29T17:10:47;99354.16;;;30.53;100.00
36788;BME280;22738;45.560;9.434;2023-07-29T17:17:29;99351.22;;;30.66;100.00
36788;BME280;22738;45.560;9.434;2023-07-29T17:24:10;99348.56;;;30.55;100.00
36788;BME280;22738;45.560;9.434;2023-07-29T17:30:52;99344.13;;;30.32;100.00
36788;BME280;22738;45.560;9.434;2023-07-29T17:37:33;99335.66;;;30.00;100.00
36788;BME280;22738;45.560;9.434;2023-07-29T17:44:15;99334.06;;;29.76;100.00
36788;BME280;22738;45.560;9.434;2023-07-29T17:50:56;99327.94;;;29.76;100.00
36788;BME280;22738;45.560;9.434;2023-07-29T17:57:39;99332.53;;;29.69;100.00
36788;BME280;22738;45.560;9.434;2023-07-29T18:04:20;99341.38;;;29.57;100.00
36788;BME280;22738;45.560;9.434;2023-07-29T18:11:01;99326.63;;;29.55;100.00
36788;BME280;22738;45.560;9.434;2023-07-29T18:17:42;99323.00;;;29.49;100.00
36788;BME280;22738;45.560;9.434;2023-07-29T18:24:23;99328.81;;;29.46;100.00
36788;BME280;22738;45.560;9.434;2023-07-29T18:31:05;99342.50;;;29.27;100.00
36788;BME280;22738;45.560;9.434;2023-07-29T18:37:47;99337.56;;;29.01;100.00
36788;BME280;22738;45.560;9.434;2023-07-29T18:44:33;99343.97;;;28.81;100.00
36788;BME280;22738;45.560;9.434;2023-07-29T18:51:14;99340.84;;;28.55;100.00
36788;BME280;22738;45.560;9.434;2023-07-29T18:57:57;99336.13;;;28.39;100.00
36788;BME280;22738;45.560;9.434;2023-07-29T19:04:38;99353.72;;;28.10;100.00
36788;BME280;22738;45.560;9.434;2023-07-29T19:11:19;99362.16;;;27.82;100.00
36788;BME280;22738;45.560;9.434;2023-07-29T19:18:01;99364.19;;;27.62;100.00
36788;BME280;22738;45.560;9.434;2023-07-29T19:24:43;99384.16;;;27.53;100.00
36788;BME280;22738;45.560;9.434;2023-07-29T19:31:25;99379.09;;;27.45;100.00
36788;BME280;22738;45.560;9.434;2023-07-29T19:38:06;99379.50;;;27.42;100.00
36788;BME280;22738;45.560;9.434;2023-07-29T19:44:47;99386.44;;;27.18;100.00
36788;BME280;22738;45.560;9.434;2023-07-29T19:51:28;99392.22;;;27.09;100.00
36788;BME280;22738;45.560;9.434;2023-07-29T19:58:09;99413.09;;;27.12;100.00
36788;BME280;22738;45.560;9.434;2023-07-29T20:04:52;99407.03;;;27.29;100.00
36788;BME280;22738;45.560;9.434;2023-07-29T20:11:35;99427.00;;;27.45;100.00
36788;BME280;22738;45.560;9.434;2023-07-29T20:18:16;99430.94;;;27.67;100.00
36788;BME280;22738;45.560;9.434;2023-07-29T20:24:57;99421.75;;;27.63;100.00
36788;BME280;22738;45.560;9.434;2023-07-29T20:31:38;99425.84;;;27.66;100.00
36788;BME280;22738;45.560;9.434;2023-07-29T20:38:19;99417.66;;;27.61;100.00
36788;BME280;22738;45.560;9.434;2023-07-29T20:45:01;99425.59;;;27.67;100.00
36788;BME280;22738;45.560;9.434;2023-07-29T20:51:45;99438.66;;;27.50;100.00
36788;BME280;22738;45.560;9.434;2023-07-29T20:58:27;99459.19;;;27.43;100.00
36788;BME280;22738;45.560;9.434;2023-07-29T21:05:08;99457.53;;;27.42;100.00
36788;BME280;22738;45.560;9.434;2023-07-29T21:11:49;99472.28;;;27.45;100.00
36788;BME280;22738;45.560;9.434;2023-07-29T21:18:35;99471.50;;;27.38;100.00
36788;BME280;22738;45.560;9.434;2023-07-29T21:25:16;99478.81;;;27.49;100.00
36788;BME280;22738;45.560;9.434;2023-07-29T21:31:57;99487.91;;;27.35;100.00
36788;BME280;22738;45.560;9.434;2023-07-29T21:38:38;99494.88;;;27.29;100.00
36788;BME280;22738;45.560;9.434;2023-07-29T21:45:21;99521.78;;;26.05;100.00
36788;BME280;22738;45.560;9.434;2023-07-29T21:52:02;99589.53;;;25.14;100.00
36788;BME280;22738;45.560;9.434;2023-07-29T21:58:45;99551.78;;;21.68;100.00
36788;BME280;22738;45.560;9.434;2023-07-29T22:05:26;99577.94;;;21.55;100.00
36788;BME280;22738;45.560;9.434;2023-07-29T22:12:07;99596.91;;;21.50;100.00
36788;BME280;22738;45.560;9.434;2023-07-29T22:18:48;99647.47;;;21.92;100.00
36788;BME280;22738;45.560;9.434;2023-07-29T22:25:29;99607.34;;;21.05;100.00
36788;BME280;22738;45.560;9.434;2023-07-29T22:32:10;99600.41;;;21.43;100.00
36788;BME280;22738;45.560;9.434;2023-07-29T22:38:51;99592.81;;;21.78;100.00
36788;BME280;22738;45.560;9.434;2023-07-29T22:45:33;99655.19;;;22.02;100.00
36788;BME280;22738;45.560;9.434;2023-07-29T22:52:14;99683.13;;;22.19;100.00
36788;BME280;22738;45.560;9.434;2023-07-29T22:58:55;99607.47;;;21.11;100.00
36788;BME280;22738;45.560;9.434;2023-07-29T23:05:36;99549.41;;;21.27;100.00
36788;BME280;22738;45.560;9.434;2023-07-29T23:12:20;99570.53;;;21.50;100.00
36788;BME280;22738;45.560;9.434;2023-07-29T23:19:03;99626.59;;;21.83;100.00
36788;BME280;22738;45.560;9.434;2023-07-29T23:25:46;99676.19;;;21.95;100.00
36788;BME280;22738;45.560;9.434;2023-07-29T23:32:28;99618.00;;;21.89;100.00
36788;BME280;22738;45.560;9.434;2023-07-29T23:39:11;99544.44;;;21.86;100.00
36788;BME280;22738;45.560;9.434;2023-07-29T23:45:52;99571.25;;;21.44;100.00
36788;BME280;22738;45.560;9.434;2023-07-29T23:52:33;99550.38;;;21.26;100.00
36788;BME280;22738;45.560;9.434;2023-07-29T23:59:15;99606.97;;;21.47;100.00
